Time,TemperatureF,DewpointF,PressureIn,WindDirection,WindDirectionDegrees,WindSpeedMPH,WindSpeedGustMPH,Humidity,HourlyPrecipIn,Conditions,Clouds,dailyrainin,SoftwareType,DateUTC
2013-01-16 00:00:00,27.3,22.0,30.03,SW,217,7.0,9.0,80,0.00,,OVC048,0.00,VWS V14.01,2013-01-16 05:00:00,
2013-01-16 00:01:00,27.2,21.9,30.03,WSW,245,5.0,9.0,80,0.00,,OVC048,0.00,VWS V14.01,2013-01-16 05:01:00,
2013-01-16 00:03:00,27.2,21.9,30.02,SSW,213,5.0,8.0,80,0.00,,OVC044,0.00,VWS V14.01,2013-01-16 05:03:00,
2013-01-16 00:08:00,27.2,21.9,30.02,SSW,209,6.0,6.0,80,0.00,,OVC044,0.00,VWS V14.01,2013-01-16 05:08:00,
2013-01-16 00:13:00,27.3,22.0,30.02,SW,219,4.0,7.0,80,0.00,,OVC044,0.00,VWS V14.01,2013-01-16 05:13:00,
2013-01-16 00:18:00,27.3,22.2,30.02,SW,217,5.0,10.0,81,0.00,,OVC044,0.00,VWS V14.01,2013-01-16 05:18:00,
2013-01-16 00:23:00,27.3,22.2,30.01,SW,225,4.0,5.0,81,0.00,,OVC044,0.00,VWS V14.01,2013-01-16 05:23:00,
2013-01-16 00:28:00,27.3,22.2,30.01,WSW,255,3.0,5.0,81,0.00,,OVC044,0.00,VWS V14.01,2013-01-16 05:28:00,
2013-01-16 00:33:00,27.3,22.2,30.01,SW,223,6.0,7.0,81,0.00,,OVC044,0.00,VWS V14.01,2013-01-16 05:33:00,
2013-01-16 00:38:00,27.3,22.2,30.01,WNW,283,3.0,6.0,81,0.00,,OVC044,0.00,VWS V14.01,2013-01-16 05:38:00,
2013-01-16 00:43:00,27.3,22.2,30.00,SW,234,7.0,9.0,81,0.00,,OVC044,0.00,VWS V14.01,2013-01-16 05:43:00,
2013-01-16 00:49:00,27.3,22.2,30.00,WSW,247,4.0,9.0,81,0.00,,OVC044,0.00,VWS V14.01,2013-01-16 05:49:00,
2013-01-16 00:54:00,27.3,22.2,30.00,SW,219,6.0,8.0,81,0.00,,OVC044,0.00,VWS V14.01,2013-01-16 05:54:00,
2013-01-16 00:59:00,27.3,22.2,30.00,SW,219,5.0,6.0,81,0.00,,OVC044,0.00,VWS V14.01,2013-01-16 05:59:00,
2013-01-16 01:04:00,27.3,22.2,29.99,SSW,204,5.0,8.0,81,0.00,,OVC043,0.00,VWS V14.01,2013-01-16 06:04:00,
2013-01-16 01:09:00,27.2,22.1,29.99,SSW,211,7.0,9.0,81,0.00,,OVC043,0.00,VWS V14.01,2013-01-16 06:09:00,
2013-01-16 01:14:00,27.4,22.4,29.99,SW,228,6.0,10.0,81,0.00,,OVC043,0.00,VWS V14.01,2013-01-16 06:14:00,
2013-01-16 01:19:00,27.3,22.2,29.99,SW,218,4.0,5.0,81,0.00,,OVC043,0.00,VWS V14.01,2013-01-16 06:19:00,
2013-01-16 01:24:00,27.3,22.2,29.99,SW,231,7.0,7.0,81,0.00,,OVC043,0.00,VWS V14.01,2013-01-16 06:24:00,
2013-01-16 01:29:00,27.2,22.1,29.98,SSW,211,2.0,6.0,81,0.00,,OVC043,0.00,VWS V14.01,2013-01-16 06:29:00,
2013-01-16 01:34:00,27.2,22.1,29.97,SSW,194,6.0,8.0,81,0.00,,OVC043,0.00,VWS V14.01,2013-01-16 06:34:00,
2013-01-16 01:39:00,27.2,22.1,29.97,SW,225,4.0,7.0,81,0.00,,OVC043,0.00,VWS V14.01,2013-01-16 06:39:00,
2013-01-16 01:44:00,27.2,22.1,29.97,SW,229,6.0,10.0,81,0.00,,OVC043,0.00,VWS V14.01,2013-01-16 06:44:00,
2013-01-16 01:49:00,27.2,22.1,29.97,SW,230,3.0,6.0,81,0.00,,OVC043,0.00,VWS V14.01,2013-01-16 06:49:00,
2013-01-16 01:54:00,27.2,22.1,29.96,SW,221,6.0,7.0,81,0.00,,OVC043,0.00,VWS V14.01,2013-01-16 06:54:00,
2013-01-16 01:59:00,27.4,22.4,29.96,SW,219,3.0,4.0,81,0.00,,OVC043,0.00,VWS V14.01,2013-01-16 06:59:00,
2013-01-16 02:04:00,27.4,22.4,29.96,SSW,202,5.0,9.0,81,0.00,,OVC046,0.00,VWS V14.01,2013-01-16 07:04:00,
2013-01-16 02:09:00,27.5,22.5,29.96,SW,221,8.0,8.0,81,0.00,,OVC046,0.00,VWS V14.01,2013-01-16 07:09:00,
2013-01-16 02:14:00,27.4,22.4,29.96,SW,218,9.0,9.0,81,0.00,,OVC046,0.00,VWS V14.01,2013-01-16 07:14:00,
2013-01-16 02:19:00,27.4,22.4,29.96,SW,215,5.0,7.0,81,0.00,,OVC046,0.00,VWS V14.01,2013-01-16 07:19:00,
2013-01-16 02:24:00,27.4,22.4,29.96,South,191,5.0,6.0,81,0.00,,OVC046,0.00,VWS V14.01,2013-01-16 07:24:00,
2013-01-16 02:29:00,27.2,22.1,29.96,SSW,204,4.0,5.0,81,0.00,,OVC046,0.00,VWS V14.01,2013-01-16 07:29:00,
2013-01-16 02:34:00,26.9,22.1,29.95,WSW,256,4.0,6.0,82,0.00,,OVC046,0.00,VWS V14.01,2013-01-16 07:34:00,
2013-01-16 02:39:00,26.7,22.0,29.95,SW,222,3.0,6.0,82,0.00,,OVC046,0.00,VWS V14.01,2013-01-16 07:39:00,
2013-01-16 02:44:00,26.6,21.9,29.95,SW,225,12.0,14.0,82,0.00,,OVC046,0.00,VWS V14.01,2013-01-16 07:44:00,
2013-01-16 02:49:00,26.5,21.8,29.95,SW,230,7.0,9.0,82,0.00,,OVC046,0.00,VWS V14.01,2013-01-16 07:49:00,
2013-01-16 02:54:00,26.4,21.7,29.95,SSW,210,8.0,16.0,82,0.00,,OVC046,0.00,VWS V14.01,2013-01-16 07:54:00,
2013-01-16 02:59:00,26.3,21.9,29.94,SW,227,7.0,11.0,83,0.00,,OVC046,0.00,VWS V14.01,2013-01-16 07:59:00,
2013-01-16 03:04:00,26.2,21.8,29.94,WSW,241,11.0,12.0,83,0.00,,BKN045,0.00,VWS V14.01,2013-01-16 08:04:00,
2013-01-16 03:09:00,26.2,21.8,29.94,SW,229,5.0,11.0,83,0.00,,BKN045,0.00,VWS V14.01,2013-01-16 08:09:00,
2013-01-16 03:14:00,26.1,21.6,29.93,WSW,238,8.0,9.0,83,0.00,,BKN045,0.00,VWS V14.01,2013-01-16 08:14:00,
2013-01-16 03:19:00,26.0,21.6,29.93,SW,218,8.0,9.0,83,0.00,,BKN045,0.00,VWS V14.01,2013-01-16 08:19:00,
2013-01-16 03:24:00,26.1,21.6,29.93,SW,234,6.0,9.0,83,0.00,,BKN045,0.00,VWS V14.01,2013-01-16 08:24:00,
2013-01-16 03:29:00,26.0,21.6,29.92,SW,226,6.0,10.0,83,0.00,,BKN045,0.00,VWS V14.01,2013-01-16 08:29:00,
2013-01-16 03:34:00,26.0,21.6,29.92,SSW,213,6.0,10.0,83,0.00,,BKN045,0.00,VWS V14.01,2013-01-16 08:34:00,
2013-01-16 03:39:00,25.8,21.4,29.92,SSW,205,7.0,9.0,83,0.00,,BKN045,0.00,VWS V14.01,2013-01-16 08:39:00,
2013-01-16 03:44:00,25.7,21.3,29.92,SSW,207,5.0,8.0,83,0.00,,BKN045,0.00,VWS V14.01,2013-01-16 08:44:00,
2013-01-16 03:49:00,25.7,21.5,29.92,SE,142,2.0,8.0,84,0.00,,BKN045,0.00,VWS V14.01,2013-01-16 08:49:00,
2013-01-16 03:54:00,25.7,21.5,29.91,SW,219,8.0,11.0,84,0.00,,BKN045,0.00,VWS V14.01,2013-01-16 08:54:00,
2013-01-16 03:59:00,25.7,21.5,29.91,SW,214,4.0,9.0,84,0.00,,BKN045,0.00,VWS V14.01,2013-01-16 08:59:00,
2013-01-16 04:04:00,25.6,21.5,29.91,SW,235,6.0,7.0,84,0.00,,CLR,0.00,VWS V14.01,2013-01-16 09:04:00,
2013-01-16 04:09:00,25.5,21.4,29.90,SSW,206,5.0,8.0,84,0.00,,CLR,0.00,VWS V14.01,2013-01-16 09:09:00,
2013-01-16 04:14:00,25.5,21.4,29.90,SSW,213,3.0,5.0,84,0.00,,CLR,0.00,VWS V14.01,2013-01-16 09:14:00,
2013-01-16 04:19:00,25.3,21.1,29.89,South,191,8.0,10.0,84,0.00,,CLR,0.00,VWS V14.01,2013-01-16 09:19:00,
2013-01-16 04:25:00,25.3,21.4,29.89,SW,215,9.0,11.0,85,0.00,,CLR,0.00,VWS V14.01,2013-01-16 09:25:00,
2013-01-16 04:30:00,25.4,21.5,29.88,SSW,204,6.0,7.0,85,0.00,,CLR,0.00,VWS V14.01,2013-01-16 09:30:00,
2013-01-16 04:35:00,25.3,21.4,29.88,South,183,4.0,8.0,85,0.00,,CLR,0.00,VWS V14.01,2013-01-16 09:35:00,
2013-01-16 04:40:00,25.2,21.3,29.87,SW,234,1.0,4.0,85,0.00,,CLR,0.00,VWS V14.01,2013-01-16 09:40:00,
2013-01-16 04:45:00,25.1,21.2,29.87,SSW,209,6.0,10.0,85,0.00,,CLR,0.00,VWS V14.01,2013-01-16 09:45:00,
2013-01-16 04:50:00,25.2,21.3,29.86,SSW,208,7.0,7.0,85,0.00,,CLR,0.00,VWS V14.01,2013-01-16 09:50:00,
2013-01-16 04:55:00,25.2,21.3,29.86,SW,232,6.0,7.0,85,0.00,,CLR,0.00,VWS V14.01,2013-01-16 09:55:00,
2013-01-16 05:00:00,25.2,21.3,29.86,WSW,249,4.0,6.0,85,0.00,,CLR,0.00,VWS V14.01,2013-01-16 10:00:00,
2013-01-16 05:05:00,25.2,21.3,29.85,SSW,193,6.0,6.0,85,0.00,,FEW036,0.00,VWS V14.01,2013-01-16 10:05:00,
2013-01-16 05:10:00,25.1,21.2,29.84,SW,223,4.0,12.0,85,0.00,,FEW036,0.00,VWS V14.01,2013-01-16 10:10:00,
2013-01-16 05:15:00,25.2,21.0,29.84,WSW,250,5.0,10.0,84,0.00,,FEW036,0.00,VWS V14.01,2013-01-16 10:15:00,
2013-01-16 05:20:00,25.2,21.0,29.83,SW,231,6.0,8.0,84,0.00,,FEW036,0.00,VWS V14.01,2013-01-16 10:20:00,
2013-01-16 05:25:00,25.1,21.0,29.83,SSW,209,5.0,6.0,84,0.00,,FEW036,0.00,VWS V14.01,2013-01-16 10:25:00,
2013-01-16 05:30:00,25.2,21.0,29.83,SSW,211,4.0,8.0,84,0.00,,FEW036,0.00,VWS V14.01,2013-01-16 10:30:00,
2013-01-16 05:35:00,25.1,21.0,29.82,SW,227,8.0,10.0,84,0.00,,FEW036,0.00,VWS V14.01,2013-01-16 10:35:00,
2013-01-16 05:40:00,25.1,21.0,29.82,SW,235,3.0,6.0,84,0.00,,FEW036,0.00,VWS V14.01,2013-01-16 10:40:00,
2013-01-16 05:45:00,25.2,21.0,29.82,SSW,209,3.0,7.0,84,0.00,,FEW036,0.00,VWS V14.01,2013-01-16 10:45:00,
2013-01-16 05:50:00,25.3,21.1,29.82,South,171,2.0,5.0,84,0.00,,FEW036,0.00,VWS V14.01,2013-01-16 10:50:00,
2013-01-16 05:55:00,25.4,21.2,29.82,SW,230,4.0,7.0,84,0.00,,FEW036,0.00,VWS V14.01,2013-01-16 10:55:00,
2013-01-16 06:00:00,25.6,21.2,29.82,SSW,207,5.0,6.0,83,0.00,,FEW036,0.00,VWS V14.01,2013-01-16 11:00:00,
2013-01-16 06:05:00,25.7,21.3,29.81,SW,235,4.0,8.0,83,0.00,,CLR,0.00,VWS V14.01,2013-01-16 11:05:00,
2013-01-16 06:10:00,25.8,21.1,29.80,SSW,207,4.0,7.0,82,0.00,,CLR,0.00,VWS V14.01,2013-01-16 11:10:00,
2013-01-16 06:15:00,26.0,21.3,29.80,SW,234,4.0,6.0,82,0.00,,CLR,0.00,VWS V14.01,2013-01-16 11:15:00,
2013-01-16 06:20:00,26.0,21.3,29.80,SW,214,7.0,13.0,82,0.00,,CLR,0.00,VWS V14.01,2013-01-16 11:20:00,
2013-01-16 06:25:00,26.2,21.2,29.80,SW,217,3.0,7.0,81,0.00,,CLR,0.00,VWS V14.01,2013-01-16 11:25:00,
2013-01-16 06:30:00,26.2,21.2,29.79,SSW,192,3.0,9.0,81,0.00,,CLR,0.00,VWS V14.01,2013-01-16 11:30:00,
2013-01-16 06:35:00,26.1,21.1,29.79,SW,224,8.0,10.0,81,0.00,,CLR,0.00,VWS V14.01,2013-01-16 11:35:00,
2013-01-16 06:40:00,26.0,21.0,29.79,SSW,212,6.0,18.0,81,0.00,,CLR,0.00,VWS V14.01,2013-01-16 11:40:00,
2013-01-16 06:45:00,26.0,20.7,29.78,WSW,258,5.0,7.0,80,0.00,,CLR,0.00,VWS V14.01,2013-01-16 11:45:00,
2013-01-16 06:50:00,26.0,20.7,29.78,WSW,254,9.0,9.0,80,0.00,,CLR,0.00,VWS V14.01,2013-01-16 11:50:00,
2013-01-16 06:55:00,26.1,20.8,29.78,SSW,194,7.0,13.0,80,0.00,,CLR,0.00,VWS V14.01,2013-01-16 11:55:00,
2013-01-16 07:00:00,26.1,20.8,29.77,WSW,250,4.0,9.0,80,0.00,,CLR,0.00,VWS V14.01,2013-01-16 12:00:00,
2013-01-16 07:05:00,26.1,20.8,29.76,SSW,209,12.0,14.0,80,0.00,,CLR,0.00,VWS V14.01,2013-01-16 12:05:00,
2013-01-16 07:10:00,26.1,20.8,29.76,SW,231,8.0,9.0,80,0.00,,CLR,0.00,VWS V14.01,2013-01-16 12:10:00,
2013-01-16 07:15:00,26.0,20.7,29.76,SW,225,8.0,15.0,80,0.00,,CLR,0.00,VWS V14.01,2013-01-16 12:15:00,
2013-01-16 07:20:00,25.9,20.6,29.76,SW,231,10.0,18.0,80,0.00,,CLR,0.00,VWS V14.01,2013-01-16 12:20:00,
2013-01-16 07:26:00,25.9,20.6,29.75,WSW,237,10.0,14.0,80,0.00,,CLR,0.00,VWS V14.01,2013-01-16 12:26:00,
2013-01-16 07:31:00,25.8,20.5,29.75,SW,221,13.0,13.0,80,0.00,,CLR,0.00,VWS V14.01,2013-01-16 12:31:00,
2013-01-16 07:36:00,25.8,20.8,29.75,WSW,240,7.0,9.0,81,0.00,,CLR,0.00,VWS V14.01,2013-01-16 12:36:00,
2013-01-16 07:41:00,25.7,20.7,29.74,SW,229,5.0,10.0,81,0.00,,CLR,0.00,VWS V14.01,2013-01-16 12:41:00,
2013-01-16 07:46:00,25.6,20.6,29.74,SW,230,5.0,9.0,81,0.00,,CLR,0.00,VWS V14.01,2013-01-16 12:46:00,
2013-01-16 07:51:00,25.4,20.4,29.74,SW,230,6.0,6.0,81,0.00,,CLR,0.00,VWS V14.01,2013-01-16 12:51:00,
2013-01-16 07:56:00,25.4,20.4,29.73,South,188,7.0,8.0,81,0.00,,CLR,0.00,VWS V14.01,2013-01-16 12:56:00,
2013-01-16 08:01:00,25.3,20.3,29.73,SW,228,6.0,7.0,81,0.00,,CLR,0.00,VWS V14.01,2013-01-16 13:01:00,
2013-01-16 08:06:00,25.2,20.5,29.73,SSW,209,6.0,7.0,82,0.00,,CLR,0.00,VWS V14.01,2013-01-16 13:06:00,
2013-01-16 08:11:00,25.2,20.5,29.73,WSW,256,7.0,11.0,82,0.00,,CLR,0.00,VWS V14.01,2013-01-16 13:11:00,
2013-01-16 08:16:00,25.2,20.5,29.73,WSW,242,4.0,6.0,82,0.00,,CLR,0.00,VWS V14.01,2013-01-16 13:16:00,
2013-01-16 08:21:00,25.2,20.5,29.73,SW,220,10.0,16.0,82,0.00,,CLR,0.00,VWS V14.01,2013-01-16 13:21:00,
2013-01-16 08:26:00,25.3,20.6,29.72,South,188,5.0,14.0,82,0.00,,CLR,0.00,VWS V14.01,2013-01-16 13:26:00,
2013-01-16 08:31:00,25.4,20.4,29.72,SSW,206,7.0,9.0,81,0.00,,CLR,0.00,VWS V14.01,2013-01-16 13:31:00,
2013-01-16 08:36:00,25.4,20.4,29.72,SW,226,4.0,7.0,81,0.00,,CLR,0.00,VWS V14.01,2013-01-16 13:36:00,
2013-01-16 08:41:00,25.6,20.6,29.72,WSW,242,9.0,9.0,81,0.00,,CLR,0.00,VWS V14.01,2013-01-16 13:41:00,
2013-01-16 08:46:00,25.7,20.4,29.71,WSW,244,13.0,13.0,80,0.00,,CLR,0.00,VWS V14.01,2013-01-16 13:46:00,
2013-01-16 08:51:00,26.0,20.7,29.71,WSW,252,9.0,11.0,80,0.00,,CLR,0.00,VWS V14.01,2013-01-16 13:51:00,
2013-01-16 08:56:00,26.2,20.6,29.71,SSW,206,6.0,8.0,79,0.00,,CLR,0.00,VWS V14.01,2013-01-16 13:56:00,
2013-01-16 09:01:00,26.3,20.7,29.70,South,170,9.0,11.0,79,0.00,,CLR,0.00,VWS V14.01,2013-01-16 14:01:00,
2013-01-16 09:06:00,26.5,20.6,29.70,WSW,258,9.0,18.0,78,0.00,,CLR,0.00,VWS V14.01,2013-01-16 14:06:00,
2013-01-16 09:11:00,26.7,20.5,29.70,SW,217,13.0,13.0,77,0.00,,CLR,0.00,VWS V14.01,2013-01-16 14:11:00,
2013-01-16 09:16:00,26.8,20.6,29.70,SW,235,18.0,18.0,77,0.00,,CLR,0.00,VWS V14.01,2013-01-16 14:16:00,
2013-01-16 09:21:00,27.0,20.8,29.69,SW,229,10.0,11.0,77,0.00,,CLR,0.00,VWS V14.01,2013-01-16 14:21:00,
2013-01-16 09:26:00,27.2,21.0,29.69,SW,215,11.0,13.0,77,0.00,,CLR,0.00,VWS V14.01,2013-01-16 14:26:00,
2013-01-16 09:31:00,27.5,20.9,29.69,WSW,244,9.0,13.0,76,0.00,,CLR,0.00,VWS V14.01,2013-01-16 14:31:00,
2013-01-16 09:36:00,27.7,21.1,29.69,SSW,213,7.0,10.0,76,0.00,,CLR,0.00,VWS V14.01,2013-01-16 14:36:00,
2013-01-16 09:41:00,27.9,21.3,29.68,SW,220,7.0,16.0,76,0.00,,CLR,0.00,VWS V14.01,2013-01-16 14:41:00,
2013-01-16 09:46:00,27.9,21.3,29.68,SW,217,7.0,8.0,76,0.00,,CLR,0.00,VWS V14.01,2013-01-16 14:46:00,
2013-01-16 09:51:00,28.1,21.2,29.68,West,277,9.0,12.0,75,0.00,,CLR,0.00,VWS V14.01,2013-01-16 14:51:00,
2013-01-16 09:56:00,28.2,21.3,29.67,SW,225,10.0,15.0,75,0.00,,CLR,0.00,VWS V14.01,2013-01-16 14:56:00,
2013-01-16 10:01:00,28.3,21.4,29.67,West,273,8.0,9.0,75,0.00,,CLR,0.00,VWS V14.01,2013-01-16 15:01:00,
2013-01-16 10:06:00,28.4,21.5,29.67,SW,223,2.0,9.0,75,0.00,,CLR,0.00,VWS V14.01,2013-01-16 15:06:00,
2013-01-16 10:11:00,28.5,21.6,29.66,WSW,248,9.0,11.0,75,0.00,,CLR,0.00,VWS V14.01,2013-01-16 15:11:00,
2013-01-16 10:17:00,28.8,21.9,29.65,WSW,254,6.0,13.0,75,0.00,,CLR,0.00,VWS V14.01,2013-01-16 15:17:00,
2013-01-16 10:22:00,29.0,22.1,29.66,SW,235,7.0,7.0,75,0.00,,CLR,0.00,VWS V14.01,2013-01-16 15:22:00,
2013-01-16 10:27:00,29.2,22.3,29.66,WSW,257,11.0,11.0,75,0.00,,CLR,0.00,VWS V14.01,2013-01-16 15:27:00,
2013-01-16 10:32:00,29.4,22.5,29.65,WSW,256,12.0,16.0,75,0.00,,CLR,0.00,VWS V14.01,2013-01-16 15:32:00,
2013-01-16 10:37:00,29.5,22.6,29.65,SE,146,5.0,14.0,75,0.00,,CLR,0.00,VWS V14.01,2013-01-16 15:37:00,
2013-01-16 10:42:00,29.6,23.0,29.64,WSW,239,12.0,21.0,76,0.00,,CLR,0.00,VWS V14.01,2013-01-16 15:42:00,
2013-01-16 10:47:00,29.7,23.1,29.64,WSW,245,10.0,14.0,76,0.00,,CLR,0.00,VWS V14.01,2013-01-16 15:47:00,
2013-01-16 10:52:00,29.8,23.5,29.63,WSW,247,8.0,12.0,77,0.00,,CLR,0.00,VWS V14.01,2013-01-16 15:52:00,
2013-01-16 10:57:00,29.7,23.7,29.63,SW,234,20.0,20.0,78,0.00,,CLR,0.00,VWS V14.01,2013-01-16 15:57:00,
2013-01-16 11:02:00,29.5,23.8,29.63,West,264,12.0,19.0,79,0.00,,OVC055,0.00,VWS V14.01,2013-01-16 16:02:00,
2013-01-16 11:07:00,29.3,24.2,29.63,SW,227,15.0,15.0,81,0.00,,OVC055,0.00,VWS V14.01,2013-01-16 16:07:00,
2013-01-16 11:12:00,29.0,24.5,29.62,SW,215,7.0,13.0,83,0.00,,OVC055,0.00,VWS V14.01,2013-01-16 16:12:00,
2013-01-16 11:17:00,28.8,24.6,29.62,SSW,205,5.0,11.0,84,0.00,,OVC055,0.00,VWS V14.01,2013-01-16 16:17:00,
2013-01-16 11:22:00,28.7,24.8,29.62,West,266,4.0,8.0,85,0.00,,OVC055,0.00,VWS V14.01,2013-01-16 16:22:00,
2013-01-16 11:27:00,28.6,25.2,29.62,SW,236,12.0,14.0,87,0.00,,OVC055,0.00,VWS V14.01,2013-01-16 16:27:00,
2013-01-16 11:32:00,28.5,25.1,29.62,WSW,253,12.0,12.0,87,0.00,,,0.00,VWS V14.01,2013-01-16 16:32:00,
2013-01-16 11:37:00,28.5,25.7,29.61,WSW,252,4.0,6.0,89,0.00,,,0.00,VWS V14.01,2013-01-16 16:37:00,
2013-01-16 11:42:00,28.4,25.9,29.62,WSW,240,13.0,18.0,90,0.00,,,0.00,VWS V14.01,2013-01-16 16:42:00,
2013-01-16 11:47:00,28.4,25.9,29.61,WSW,247,8.0,14.0,90,0.00,,,0.00,VWS V14.01,2013-01-16 16:47:00,
2013-01-16 11:52:00,28.7,26.4,29.60,WNW,291,21.0,22.0,91,0.00,,,0.00,VWS V14.01,2013-01-16 16:52:00,
2013-01-16 11:57:00,29.4,27.1,29.59,WNW,289,16.0,33.0,91,0.00,,,0.00,VWS V14.01,2013-01-16 16:57:00,
2013-01-16 12:02:00,29.7,27.4,29.60,South,190,14.0,14.0,91,0.00,,,0.00,VWS V14.01,2013-01-16 17:02:00,
2013-01-16 12:07:00,29.6,27.6,29.61,WSW,247,11.0,23.0,92,0.00,,,0.00,VWS V14.01,2013-01-16 17:07:00,
2013-01-16 12:12:00,29.7,27.7,29.60,West,260,15.0,19.0,92,0.00,,,0.00,VWS V14.01,2013-01-16 17:12:00,
2013-01-16 12:17:00,29.7,27.7,29.60,WSW,248,24.0,24.0,92,0.00,,,0.00,VWS V14.01,2013-01-16 17:17:00,
2013-01-16 12:22:00,29.6,27.8,29.60,SW,235,5.0,11.0,93,0.00,,,0.00,VWS V14.01,2013-01-16 17:22:00,
2013-01-16 12:27:00,29.5,27.7,29.60,West,260,12.0,17.0,93,0.00,,,0.00,VWS V14.01,2013-01-16 17:27:00,
2013-01-16 12:32:00,29.5,28.0,29.60,West,265,20.0,22.0,94,0.00,,,0.00,VWS V14.01,2013-01-16 17:32:00,
2013-01-16 12:37:00,29.5,28.0,29.59,WNW,296,16.0,18.0,94,0.00,,,0.00,VWS V14.01,2013-01-16 17:37:00,
2013-01-16 12:42:00,29.6,28.1,29.60,NW,325,10.0,14.0,94,0.00,,,0.00,VWS V14.01,2013-01-16 17:42:00,
2013-01-16 12:47:00,29.5,28.0,29.60,WNW,301,9.0,17.0,94,0.00,,,0.00,VWS V14.01,2013-01-16 17:47:00,
2013-01-16 12:52:00,29.4,27.9,29.60,SSW,213,8.0,19.0,94,0.00,,,0.00,VWS V14.01,2013-01-16 17:52:00,
2013-01-16 12:57:00,29.3,27.8,29.60,West,269,16.0,16.0,94,0.00,,,0.00,VWS V14.01,2013-01-16 17:57:00,
2013-01-16 13:02:00,29.3,27.8,29.60,WSW,244,9.0,24.0,94,0.00,,,0.00,VWS V14.01,2013-01-16 18:02:00,
2013-01-16 13:07:00,29.3,27.5,29.60,WSW,250,14.0,14.0,93,0.00,,,0.00,VWS V14.01,2013-01-16 18:07:00,
2013-01-16 13:12:00,29.3,27.5,29.60,West,263,9.0,11.0,93,0.00,,,0.00,VWS V14.01,2013-01-16 18:12:00,
2013-01-16 13:17:00,29.3,27.5,29.60,SW,230,10.0,10.0,93,0.00,,,0.00,VWS V14.01,2013-01-16 18:17:00,
2013-01-16 13:22:00,29.1,27.1,29.60,WNW,286,7.0,17.0,92,0.00,,,0.00,VWS V14.01,2013-01-16 18:22:00,
2013-01-16 13:27:00,28.9,26.9,29.60,SW,231,11.0,14.0,92,0.00,,,0.00,VWS V14.01,2013-01-16 18:27:00,
2013-01-16 13:32:00,28.7,26.9,29.60,West,279,6.0,16.0,93,0.00,,,0.00,VWS V14.01,2013-01-16 18:32:00,
2013-01-16 13:37:00,28.8,26.8,29.61,NW,311,3.0,7.0,92,0.00,,,0.00,VWS V14.01,2013-01-16 18:37:00,
2013-01-16 13:42:00,29.1,26.8,29.61,NNW,333,13.0,14.0,91,0.00,,,0.00,VWS V14.01,2013-01-16 18:42:00,
2013-01-16 13:47:00,29.3,26.7,29.60,West,276,9.0,10.0,90,0.00,,,0.00,VWS V14.01,2013-01-16 18:47:00,
2013-01-16 13:52:00,29.3,26.7,29.61,West,273,7.0,13.0,90,0.00,,,0.00,VWS V14.01,2013-01-16 18:52:00,
2013-01-16 13:57:00,29.2,26.4,29.61,West,277,9.0,18.0,89,0.00,,,0.00,VWS V14.01,2013-01-16 18:57:00,
2013-01-16 14:02:00,29.0,25.9,29.61,West,270,12.0,15.0,88,0.00,,,0.00,VWS V14.01,2013-01-16 19:02:00,
2013-01-16 14:07:00,28.9,25.8,29.61,WSW,248,8.0,14.0,88,0.00,,,0.00,VWS V14.01,2013-01-16 19:07:00,
2013-01-16 14:12:00,28.8,26.0,29.61,West,270,11.0,13.0,89,0.00,,,0.00,VWS V14.01,2013-01-16 19:12:00,
2013-01-16 14:17:00,28.8,26.0,29.61,WNW,290,9.0,16.0,89,0.00,,,0.00,VWS V14.01,2013-01-16 19:17:00,
2013-01-16 14:22:00,28.8,25.7,29.62,NNW,333,7.0,8.0,88,0.00,,,0.00,VWS V14.01,2013-01-16 19:22:00,
2013-01-16 14:27:00,28.8,25.7,29.62,NW,307,1.0,13.0,88,0.00,,,0.00,VWS V14.01,2013-01-16 19:27:00,
2013-01-16 14:32:00,28.8,26.0,29.61,WNW,288,3.0,11.0,89,0.00,,,0.00,VWS V14.01,2013-01-16 19:32:00,
2013-01-16 14:37:00,28.8,26.0,29.62,WSW,244,13.0,13.0,89,0.00,,,0.00,VWS V14.01,2013-01-16 19:37:00,
2013-01-16 14:43:00,28.8,26.0,29.62,WSW,244,5.0,7.0,89,0.00,,,0.00,VWS V14.01,2013-01-16 19:43:00,
2013-01-16 14:48:00,28.9,25.8,29.62,NW,306,6.0,8.0,88,0.00,,,0.00,VWS V14.01,2013-01-16 19:48:00,
2013-01-16 14:53:00,28.9,25.8,29.62,WNW,284,5.0,12.0,88,0.00,,,0.00,VWS V14.01,2013-01-16 19:53:00,
2013-01-16 14:58:00,28.9,25.8,29.63,SW,231,7.0,13.0,88,0.00,,,0.00,VWS V14.01,2013-01-16 19:58:00,
2013-01-16 15:03:00,29.0,25.9,29.63,WNW,294,6.0,10.0,88,0.00,,OVC019,0.00,VWS V14.01,2013-01-16 20:03:00,
2013-01-16 15:08:00,29.0,25.9,29.63,NW,315,7.0,10.0,88,0.00,,OVC019,0.00,VWS V14.01,2013-01-16 20:08:00,
2013-01-16 15:13:00,29.1,26.0,29.63,NW,308,5.0,13.0,88,0.00,,OVC019,0.00,VWS V14.01,2013-01-16 20:13:00,
2013-01-16 15:18:00,29.2,26.1,29.63,West,262,8.0,10.0,88,0.00,,OVC019,0.00,VWS V14.01,2013-01-16 20:18:00,
2013-01-16 15:23:00,29.3,26.2,29.63,NW,325,6.0,7.0,88,0.00,,OVC019,0.00,VWS V14.01,2013-01-16 20:23:00,
2013-01-16 15:28:00,29.3,26.5,29.63,WNW,297,12.0,16.0,89,0.00,,OVC019,0.00,VWS V14.01,2013-01-16 20:28:00,
2013-01-16 15:33:00,29.2,26.6,29.64,WNW,283,6.0,12.0,90,0.00,,OVC019,0.00,VWS V14.01,2013-01-16 20:33:00,
2013-01-16 15:38:00,29.1,26.5,29.64,WNW,295,10.0,14.0,90,0.00,,OVC019,0.00,VWS V14.01,2013-01-16 20:38:00,
2013-01-16 15:43:00,29.2,26.6,29.64,West,269,8.0,8.0,90,0.00,,OVC019,0.00,VWS V14.01,2013-01-16 20:43:00,
2013-01-16 15:48:00,29.3,26.5,29.65,SW,224,8.0,10.0,89,0.00,,OVC019,0.00,VWS V14.01,2013-01-16 20:48:00,
2013-01-16 15:53:00,29.4,26.6,29.65,NW,321,3.0,13.0,89,0.00,,OVC019,0.00,VWS V14.01,2013-01-16 20:53:00,
2013-01-16 15:58:00,29.5,26.7,29.65,WNW,294,9.0,11.0,89,0.00,,OVC019,0.00,VWS V14.01,2013-01-16 20:58:00,
2013-01-16 16:03:00,29.6,26.8,29.65,WNW,295,7.0,8.0,89,0.00,,,0.00,VWS V14.01,2013-01-16 21:03:00,
2013-01-16 16:08:00,29.6,26.5,29.66,West,277,5.0,9.0,88,0.00,,,0.00,VWS V14.01,2013-01-16 21:08:00,
2013-01-16 16:13:00,29.7,26.6,29.66,SW,232,4.0,7.0,88,0.00,,,0.00,VWS V14.01,2013-01-16 21:13:00,
2013-01-16 16:18:00,29.7,26.6,29.65,West,278,9.0,9.0,88,0.00,,,0.00,VWS V14.01,2013-01-16 21:18:00,
2013-01-16 16:23:00,29.7,26.6,29.65,West,273,3.0,12.0,88,0.00,,,0.00,VWS V14.01,2013-01-16 21:23:00,
2013-01-16 16:28:00,29.8,26.4,29.65,WNW,288,6.0,6.0,87,0.00,,,0.00,VWS V14.01,2013-01-16 21:28:00,
2013-01-16 16:33:00,29.9,26.5,29.66,NW,315,5.0,9.0,87,0.00,,,0.00,VWS V14.01,2013-01-16 21:33:00,
2013-01-16 16:38:00,29.9,26.5,29.66,WNW,291,10.0,10.0,87,0.00,,,0.00,VWS V14.01,2013-01-16 21:38:00,
2013-01-16 16:43:00,29.9,26.5,29.67,SW,236,7.0,7.0,87,0.00,,,0.00,VWS V14.01,2013-01-16 21:43:00,
2013-01-16 16:48:00,29.9,26.5,29.68,NW,306,6.0,6.0,87,0.00,,,0.00,VWS V14.01,2013-01-16 21:48:00,
2013-01-16 16:53:00,29.9,26.2,29.68,WNW,286,7.0,12.0,86,0.00,,,0.00,VWS V14.01,2013-01-16 21:53:00,
2013-01-16 16:58:00,30.0,26.3,29.68,NNW,328,12.0,14.0,86,0.00,,,0.00,VWS V14.01,2013-01-16 21:58:00,
2013-01-16 17:03:00,30.0,26.3,29.68,WNW,283,5.0,7.0,86,0.00,,OVC047,0.00,VWS V14.01,2013-01-16 22:03:00,
2013-01-16 17:08:00,30.1,26.4,29.68,West,277,6.0,8.0,86,0.00,,OVC047,0.00,VWS V14.01,2013-01-16 22:08:00,
2013-01-16 17:13:00,30.1,26.1,29.68,West,270,2.0,5.0,85,0.00,,OVC047,0.00,VWS V14.01,2013-01-16 22:13:00,
2013-01-16 17:18:00,30.2,26.2,29.69,West,260,7.0,13.0,85,0.00,,OVC047,0.00,VWS V14.01,2013-01-16 22:18:00,
2013-01-16 17:24:00,30.2,26.5,29.69,WSW,250,10.0,12.0,86,0.00,,OVC047,0.00,VWS V14.01,2013-01-16 22:24:00,
2013-01-16 17:29:00,30.2,26.5,29.70,NNW,344,8.0,12.0,86,0.00,,OVC047,0.00,VWS V14.01,2013-01-16 22:29:00,
2013-01-16 17:34:00,30.3,26.6,29.70,WNW,296,8.0,11.0,86,0.00,,OVC047,0.00,VWS V14.01,2013-01-16 22:34:00,
2013-01-16 17:39:00,30.3,26.6,29.71,West,263,4.0,7.0,86,0.00,,OVC047,0.00,VWS V14.01,2013-01-16 22:39:00,
2013-01-16 17:44:00,30.3,26.6,29.70,WNW,286,6.0,11.0,86,0.00,,OVC047,0.00,VWS V14.01,2013-01-16 22:44:00,
2013-01-16 17:49:00,30.3,26.6,29.71,NW,304,4.0,10.0,86,0.00,,OVC047,0.00,VWS V14.01,2013-01-16 22:49:00,
2013-01-16 17:54:00,30.2,26.8,29.71,WNW,286,8.0,11.0,87,0.00,,OVC047,0.00,VWS V14.01,2013-01-16 22:54:00,
2013-01-16 17:59:00,30.2,27.1,29.71,West,259,7.0,8.0,88,0.00,,OVC047,0.00,VWS V14.01,2013-01-16 22:59:00,
2013-01-16 18:04:00,30.0,27.4,29.72,WNW,300,4.0,10.0,90,0.00,,,0.00,VWS V14.01,2013-01-16 23:04:00,
2013-01-16 18:09:00,29.8,27.5,29.73,WNW,284,4.0,6.0,91,0.00,,,0.00,VWS V14.01,2013-01-16 23:09:00,
2013-01-16 18:14:00,29.6,27.6,29.73,WNW,296,7.0,9.0,92,0.00,,,0.00,VWS V14.01,2013-01-16 23:14:00,
2013-01-16 18:19:00,29.4,27.4,29.73,NNW,327,11.0,13.0,92,0.00,,,0.00,VWS V14.01,2013-01-16 23:19:00,
2013-01-16 18:24:00,29.2,27.4,29.74,NW,325,7.0,12.0,93,0.00,,,0.00,VWS V14.01,2013-01-16 23:24:00,
2013-01-16 18:29:00,29.0,27.2,29.74,WNW,283,5.0,10.0,93,0.00,,,0.00,VWS V14.01,2013-01-16 23:29:00,
2013-01-16 18:34:00,29.0,27.2,29.74,WNW,301,4.0,10.0,93,0.00,,,0.00,VWS V14.01,2013-01-16 23:34:00,
2013-01-16 18:39:00,28.8,27.0,29.74,NNW,343,7.0,7.0,93,0.00,,,0.00,VWS V14.01,2013-01-16 23:39:00,
2013-01-16 18:44:00,28.5,26.7,29.75,NNW,333,7.0,7.0,93,0.00,,,0.00,VWS V14.01,2013-01-16 23:44:00,
2013-01-16 18:49:00,28.2,26.4,29.75,NNW,347,10.0,16.0,93,0.00,,,0.00,VWS V14.01,2013-01-16 23:49:00,
2013-01-16 18:54:00,27.9,26.1,29.75,NW,317,5.0,6.0,93,0.00,,,0.00,VWS V14.01,2013-01-16 23:54:00,
2013-01-16 18:59:00,27.8,26.0,29.76,NNW,335,12.0,15.0,93,0.00,,,0.00,VWS V14.01,2013-01-16 23:59:00,
2013-01-16 19:04:00,27.7,25.9,29.76,North,357,9.0,12.0,93,0.00,,,0.00,VWS V14.01,2013-01-17 00:04:00,
2013-01-16 19:09:00,27.7,25.9,29.76,NNW,338,12.0,13.0,93,0.00,,,0.00,VWS V14.01,2013-01-17 00:09:00,
2013-01-16 19:14:00,27.6,25.6,29.77,NNW,339,9.0,10.0,92,0.00,,,0.00,VWS V14.01,2013-01-17 00:14:00,
2013-01-16 19:19:00,27.5,25.5,29.77,NNE,13,11.0,12.0,92,0.00,,,0.00,VWS V14.01,2013-01-17 00:19:00,
2013-01-16 19:24:00,27.3,25.0,29.78,NNE,22,7.0,12.0,91,0.00,,,0.00,VWS V14.01,2013-01-17 00:24:00,
2013-01-16 19:29:00,27.2,24.4,29.78,NNW,348,6.0,12.0,89,0.00,,,0.00,VWS V14.01,2013-01-17 00:29:00,
2013-01-16 19:34:00,27.0,23.6,29.78,NW,323,9.0,16.0,87,0.00,,,0.00,VWS V14.01,2013-01-17 00:34:00,
2013-01-16 19:39:00,26.9,23.0,29.79,NNW,339,15.0,21.0,85,0.00,,,0.00,VWS V14.01,2013-01-17 00:39:00,
2013-01-16 19:44:00,26.8,22.0,29.79,NW,319,11.0,22.0,82,0.00,,,0.00,VWS V14.01,2013-01-17 00:44:00,
2013-01-16 19:49:00,26.7,21.7,29.79,NW,315,13.0,15.0,81,0.00,,,0.00,VWS V14.01,2013-01-17 00:49:00,
2013-01-16 19:54:00,26.7,21.7,29.80,North,350,8.0,12.0,81,0.00,,,0.00,VWS V14.01,2013-01-17 00:54:00,
2013-01-16 19:59:00,26.6,21.0,29.80,NW,313,8.0,12.0,79,0.00,,,0.00,VWS V14.01,2013-01-17 00:59:00,
2013-01-16 20:04:00,26.6,21.0,29.80,North,352,16.0,16.0,79,0.00,,,0.00,VWS V14.01,2013-01-17 01:04:00,
2013-01-16 20:09:00,26.4,21.7,29.81,North,350,7.0,8.0,82,0.00,,,0.00,VWS V14.01,2013-01-17 01:09:00,
2013-01-16 20:14:00,26.0,21.3,29.81,North,2,6.0,12.0,82,0.00,,,0.00,VWS V14.01,2013-01-17 01:14:00,
2013-01-16 20:19:00,25.4,20.4,29.82,North,357,12.0,22.0,81,0.00,,,0.00,VWS V14.01,2013-01-17 01:19:00,
2013-01-16 20:24:00,25.0,20.0,29.82,NNE,24,8.0,14.0,81,0.00,,,0.00,VWS V14.01,2013-01-17 01:24:00,
2013-01-16 20:29:00,24.7,19.7,29.83,North,357,10.0,17.0,81,0.00,,,0.00,VWS V14.01,2013-01-17 01:29:00,
2013-01-16 20:34:00,24.5,19.2,29.83,North,7,14.0,18.0,80,0.00,,OVC110,0.00,VWS V14.01,2013-01-17 01:34:00,
2013-01-16 20:39:00,24.3,18.7,29.84,North,357,11.0,15.0,79,0.00,,OVC110,0.00,VWS V14.01,2013-01-17 01:39:00,
2013-01-16 20:44:00,24.0,18.5,29.84,NNE,13,7.0,12.0,79,0.00,,OVC110,0.00,VWS V14.01,2013-01-17 01:44:00,
2013-01-16 20:49:00,23.8,18.0,29.85,NNE,14,8.0,12.0,78,0.00,,OVC110,0.00,VWS V14.01,2013-01-17 01:49:00,
2013-01-16 20:55:00,23.6,18.1,29.85,North,7,9.0,12.0,79,0.00,,OVC110,0.00,VWS V14.01,2013-01-17 01:55:00,
2013-01-16 21:00:00,23.6,18.1,29.85,NW,319,9.0,11.0,79,0.00,,OVC110,0.00,VWS V14.01,2013-01-17 02:00:00,
2013-01-16 21:05:00,23.4,17.9,29.86,NNW,348,11.0,14.0,79,0.00,,OVC070,0.00,VWS V14.01,2013-01-17 02:05:00,
2013-01-16 21:10:00,23.2,17.4,29.86,North,357,12.0,13.0,78,0.00,,OVC070,0.00,VWS V14.01,2013-01-17 02:10:00,
2013-01-16 21:15:00,23.1,17.3,29.86,NW,316,8.0,9.0,78,0.00,,OVC070,0.00,VWS V14.01,2013-01-17 02:15:00,
2013-01-16 21:20:00,23.0,17.2,29.87,NNE,14,12.0,12.0,78,0.00,,OVC070,0.00,VWS V14.01,2013-01-17 02:20:00,
2013-01-16 21:25:00,22.7,16.3,29.87,North,353,8.0,13.0,76,0.00,,OVC070,0.00,VWS V14.01,2013-01-17 02:25:00,
2013-01-16 21:30:00,22.4,16.0,29.87,North,352,9.0,12.0,76,0.00,,OVC070,0.00,VWS V14.01,2013-01-17 02:30:00,
2013-01-16 21:35:00,22.2,16.1,29.88,NNE,29,7.0,7.0,77,0.00,,OVC070,0.00,VWS V14.01,2013-01-17 02:35:00,
2013-01-16 21:40:00,22.1,16.0,29.88,NNW,344,4.0,10.0,77,0.00,,OVC070,0.00,VWS V14.01,2013-01-17 02:40:00,
2013-01-16 21:45:00,22.1,16.0,29.89,NNW,348,8.0,15.0,77,0.00,,OVC070,0.00,VWS V14.01,2013-01-17 02:45:00,
2013-01-16 21:50:00,22.0,16.2,29.89,NNW,333,8.0,10.0,78,0.00,,OVC070,0.00,VWS V14.01,2013-01-17 02:50:00,
2013-01-16 21:55:00,22.0,16.2,29.89,North,7,12.0,12.0,78,0.00,,OVC070,0.00,VWS V14.01,2013-01-17 02:55:00,
2013-01-16 22:00:00,21.8,16.0,29.90,North,7,5.0,9.0,78,0.00,,OVC070,0.00,VWS V14.01,2013-01-17 03:00:00,
2013-01-16 22:05:00,21.7,15.6,29.91,NNW,342,9.0,11.0,77,0.00,,SCT070,0.00,VWS V14.01,2013-01-17 03:05:00,
2013-01-16 22:10:00,21.7,15.6,29.91,North,357,9.0,11.0,77,0.00,,SCT070,0.00,VWS V14.01,2013-01-17 03:10:00,
2013-01-16 22:15:00,21.5,14.8,29.91,NNE,13,13.0,19.0,75,0.00,,SCT070,0.00,VWS V14.01,2013-01-17 03:15:00,
2013-01-16 22:20:00,21.2,14.5,29.91,NW,321,16.0,19.0,75,0.00,,BKN029,0.00,VWS V14.01,2013-01-17 03:20:00,
2013-01-16 22:25:00,21.0,14.3,29.92,NNE,22,11.0,17.0,75,0.00,,BKN029,0.00,VWS V14.01,2013-01-17 03:25:00,
2013-01-16 22:30:00,21.0,14.3,29.92,NNW,346,8.0,15.0,75,0.00,,BKN029,0.00,VWS V14.01,2013-01-17 03:30:00,
2013-01-16 22:35:00,21.0,14.3,29.92,North,352,10.0,10.0,75,0.00,,BKN029,0.00,VWS V14.01,2013-01-17 03:35:00,
2013-01-16 22:40:00,20.9,14.5,29.93,North,2,9.0,14.0,76,0.00,,BKN029,0.00,VWS V14.01,2013-01-17 03:40:00,
2013-01-16 22:45:00,20.8,14.7,29.93,North,11,5.0,10.0,77,0.00,,BKN029,0.00,VWS V14.01,2013-01-17 03:45:00,
2013-01-16 22:50:00,20.7,14.9,29.94,North,350,6.0,9.0,78,0.00,,BKN029,0.00,VWS V14.01,2013-01-17 03:50:00,
2013-01-16 22:55:00,20.7,14.4,29.94,NNW,346,9.0,17.0,76,0.00,,BKN029,0.00,VWS V14.01,2013-01-17 03:55:00,
2013-01-16 23:00:00,20.7,14.6,29.94,North,11,8.0,13.0,77,0.00,,BKN029,0.00,VWS V14.01,2013-01-17 04:00:00,
2013-01-16 23:05:00,20.3,14.6,29.95,North,11,10.0,10.0,78,0.00,,OVC043,0.00,VWS V14.01,2013-01-17 04:05:00,
2013-01-16 23:10:00,20.0,13.7,29.95,North,7,6.0,10.0,76,0.00,,OVC043,0.00,VWS V14.01,2013-01-17 04:10:00,
2013-01-16 23:15:00,19.7,13.1,29.95,North,2,14.0,14.0,75,0.00,,OVC043,0.00,VWS V14.01,2013-01-17 04:15:00,
2013-01-16 23:20:00,19.4,12.8,29.95,North,353,6.0,14.0,75,0.00,,OVC040,0.00,VWS V14.01,2013-01-17 04:20:00,
2013-01-16 23:25:00,19.3,12.7,29.96,NNE,17,7.0,11.0,75,0.00,,OVC040,0.00,VWS V14.01,2013-01-17 04:25:00,
2013-01-16 23:30:00,19.1,11.9,29.97,NNW,339,19.0,22.0,73,0.00,,OVC040,0.00,VWS V14.01,2013-01-17 04:30:00,
2013-01-16 23:35:00,19.0,11.5,29.97,NNE,21,12.0,14.0,72,0.00,,OVC040,0.00,VWS V14.01,2013-01-17 04:35:00,
2013-01-16 23:40:00,18.9,11.4,29.98,NNW,344,15.0,15.0,72,0.00,,OVC040,0.00,VWS V14.01,2013-01-17 04:40:00,
2013-01-16 23:45:00,18.7,11.5,29.98,NNE,19,12.0,12.0,73,0.00,,OVC040,0.00,VWS V14.01,2013-01-17 04:45:00,
2013-01-16 23:50:00,18.6,11.4,29.98,NNE,22,8.0,13.0,73,0.00,,OVC040,0.00,VWS V14.01,2013-01-17 04:50:00,
2013-01-16 23:55:00,18.5,11.0,29.98,North,2,6.0,12.0,72,0.00,,OVC040,0.00,VWS V14.01,2013-01-17 04:55:00,